Clifton, Idaho
Current Conditions -  °F | °C
As of 6:51 AM on Monday 20 Oct 2014 (Local Time) from KLGU Reporting Station
Clear Clear  
Wind Chill:   Ceiling: Unl
Heat Index:   Visibility: 10mi
Dew Point: -1°   Wind: 0mph
Humidity: 85%   Direction: NA
Pressure: 30.07"   Gusts: NA
Location:  42.19°N, 112.01°W
Report Text: KLGU 201251Z AUTO 00000KT 10SM CLR 01/M01 A3007 RMK AO2 SLP165 T00111011 TSNO
Loading
Personal Weather Stations






























Interactive Weather Map
Tropical Storm Tracking
New forecast layout! Learn more

10-Day Weather Forecast

Advertisements
Track Severe Weather on mobile